sensor_id;sensor_type;location;lat;lon;timestamp;P1;durP1;ratioP1;P2;durP2;ratioP2
79128;SDS011;68529;43.286;23.360;2023-05-16T00:00:51;29.80;;;25.57;;
79128;SDS011;68529;43.286;23.360;2023-05-16T00:03:17;27.10;;;24.20;;
79128;SDS011;68529;43.286;23.360;2023-05-16T00:05:43;32.57;;;26.10;;
79128;SDS011;68529;43.286;23.360;2023-05-16T00:08:09;25.20;;;22.80;;
79128;SDS011;68529;43.286;23.360;2023-05-16T00:10:35;27.37;;;23.13;;
79128;SDS011;68529;43.286;23.360;2023-05-16T00:13:01;24.50;;;22.03;;
79128;SDS011;68529;43.286;23.360;2023-05-16T00:15:27;24.63;;;22.23;;
79128;SDS011;68529;43.286;23.360;2023-05-16T00:17:54;24.67;;;22.20;;
79128;SDS011;68529;43.286;23.360;2023-05-16T00:20:24;26.47;;;23.63;;
79128;SDS011;68529;43.286;23.360;2023-05-16T00:22:50;25.27;;;22.67;;
79128;SDS011;68529;43.286;23.360;2023-05-16T00:25:16;24.73;;;22.23;;
79128;SDS011;68529;43.286;23.360;2023-05-16T00:27:42;24.47;;;22.07;;
79128;SDS011;68529;43.286;23.360;2023-05-16T00:30:07;26.50;;;22.20;;
79128;SDS011;68529;43.286;23.360;2023-05-16T00:32:33;24.50;;;22.07;;
79128;SDS011;68529;43.286;23.360;2023-05-16T00:35:00;24.07;;;21.67;;
79128;SDS011;68529;43.286;23.360;2023-05-16T00:37:25;24.57;;;21.90;;
79128;SDS011;68529;43.286;23.360;2023-05-16T00:39:51;24.50;;;21.80;;
79128;SDS011;68529;43.286;23.360;2023-05-16T00:42:17;24.13;;;21.40;;
79128;SDS011;68529;43.286;23.360;2023-05-16T00:44:44;24.00;;;21.57;;
79128;SDS011;68529;43.286;23.360;2023-05-16T00:47:10;24.50;;;22.00;;
79128;SDS011;68529;43.286;23.360;2023-05-16T00:49:35;26.83;;;24.00;;
79128;SDS011;68529;43.286;23.360;2023-05-16T00:52:00;26.63;;;23.70;;
79128;SDS011;68529;43.286;23.360;2023-05-16T00:54:27;26.30;;;22.53;;
79128;SDS011;68529;43.286;23.360;2023-05-16T00:56:54;25.30;;;22.83;;
79128;SDS011;68529;43.286;23.360;2023-05-16T00:59:20;25.47;;;22.77;;
79128;SDS011;68529;43.286;23.360;2023-05-16T01:01:46;24.67;;;22.13;;
79128;SDS011;68529;43.286;23.360;2023-05-16T01:04:12;24.03;;;21.50;;
79128;SDS011;68529;43.286;23.360;2023-05-16T01:06:38;23.60;;;20.97;;
79128;SDS011;68529;43.286;23.360;2023-05-16T01:09:04;23.93;;;20.97;;
79128;SDS011;68529;43.286;23.360;2023-05-16T01:14:32;25.27;;;22.53;;
79128;SDS011;68529;43.286;23.360;2023-05-16T01:17:18;25.53;;;21.87;;
79128;SDS011;68529;43.286;23.360;2023-05-16T01:19:55;24.20;;;21.70;;
79128;SDS011;68529;43.286;23.360;2023-05-16T01:25:04;25.93;;;21.70;;
79128;SDS011;68529;43.286;23.360;2023-05-16T01:27:38;24.23;;;21.60;;
79128;SDS011;68529;43.286;23.360;2023-05-16T01:30:15;24.60;;;22.17;;
79128;SDS011;68529;43.286;23.360;2023-05-16T01:32:42;26.97;;;22.57;;
79128;SDS011;68529;43.286;23.360;2023-05-16T01:35:08;24.03;;;20.50;;
79128;SDS011;68529;43.286;23.360;2023-05-16T01:37:37;24.63;;;21.97;;
79128;SDS011;68529;43.286;23.360;2023-05-16T01:40:52;26.40;;;23.43;;
79128;SDS011;68529;43.286;23.360;2023-05-16T01:43:02;24.27;;;21.33;;
79128;SDS011;68529;43.286;23.360;2023-05-16T01:45:33;26.43;;;22.57;;
79128;SDS011;68529;43.286;23.360;2023-05-16T01:48:05;24.80;;;22.10;;
79128;SDS011;68529;43.286;23.360;2023-05-16T01:50:35;23.60;;;21.07;;
79128;SDS011;68529;43.286;23.360;2023-05-16T01:53:07;24.70;;;22.20;;
79128;SDS011;68529;43.286;23.360;2023-05-16T01:58:17;25.17;;;22.23;;
79128;SDS011;68529;43.286;23.360;2023-05-16T02:00:45;27.93;;;25.10;;
79128;SDS011;68529;43.286;23.360;2023-05-16T02:03:11;25.90;;;23.20;;
79128;SDS011;68529;43.286;23.360;2023-05-16T02:05:36;26.83;;;23.17;;
79128;SDS011;68529;43.286;23.360;2023-05-16T02:08:02;25.43;;;22.53;;
79128;SDS011;68529;43.286;23.360;2023-05-16T02:10:28;31.60;;;26.57;;
79128;SDS011;68529;43.286;23.360;2023-05-16T02:12:54;28.67;;;25.67;;
79128;SDS011;68529;43.286;23.360;2023-05-16T02:15:19;25.57;;;22.83;;
79128;SDS011;68529;43.286;23.360;2023-05-16T02:17:45;25.17;;;22.53;;
79128;SDS011;68529;43.286;23.360;2023-05-16T02:20:11;24.17;;;21.70;;
79128;SDS011;68529;43.286;23.360;2023-05-16T02:22:37;26.67;;;23.60;;
79128;SDS011;68529;43.286;23.360;2023-05-16T02:25:07;24.63;;;22.10;;
79128;SDS011;68529;43.286;23.360;2023-05-16T02:27:32;23.40;;;20.97;;
79128;SDS011;68529;43.286;23.360;2023-05-16T02:29:58;24.87;;;22.33;;
79128;SDS011;68529;43.286;23.360;2023-05-16T02:32:23;27.37;;;22.97;;
79128;SDS011;68529;43.286;23.360;2023-05-16T02:34:49;30.13;;;24.50;;
79128;SDS011;68529;43.286;23.360;2023-05-16T02:37:14;24.93;;;22.43;;
79128;SDS011;68529;43.286;23.360;2023-05-16T02:39:40;26.83;;;22.67;;
79128;SDS011;68529;43.286;23.360;2023-05-16T02:42:05;24.90;;;22.27;;
79128;SDS011;68529;43.286;23.360;2023-05-16T02:44:31;24.83;;;22.03;;
79128;SDS011;68529;43.286;23.360;2023-05-16T02:46:56;26.97;;;22.07;;
79128;SDS011;68529;43.286;23.360;2023-05-16T02:49:22;24.77;;;22.07;;
79128;SDS011;68529;43.286;23.360;2023-05-16T02:51:47;23.27;;;20.87;;
79128;SDS011;68529;43.286;23.360;2023-05-16T02:54:13;25.63;;;22.33;;
79128;SDS011;68529;43.286;23.360;2023-05-16T02:56:39;24.17;;;20.43;;
79128;SDS011;68529;43.286;23.360;2023-05-16T02:59:04;25.53;;;20.27;;
79128;SDS011;68529;43.286;23.360;2023-05-16T03:01:29;24.70;;;21.47;;
79128;SDS011;68529;43.286;23.360;2023-05-16T03:03:55;24.30;;;21.73;;
79128;SDS011;68529;43.286;23.360;2023-05-16T03:06:21;28.20;;;22.20;;
79128;SDS011;68529;43.286;23.360;2023-05-16T03:08:46;23.47;;;21.07;;
79128;SDS011;68529;43.286;23.360;2023-05-16T03:11:12;24.20;;;21.60;;
79128;SDS011;68529;43.286;23.360;2023-05-16T03:13:38;25.47;;;22.77;;
79128;SDS011;68529;43.286;23.360;2023-05-16T03:16:04;24.87;;;22.20;;
79128;SDS011;68529;43.286;23.360;2023-05-16T03:18:30;24.53;;;21.53;;
79128;SDS011;68529;43.286;23.360;2023-05-16T03:20:55;28.87;;;22.67;;
79128;SDS011;68529;43.286;23.360;2023-05-16T03:23:21;25.10;;;22.63;;
79128;SDS011;68529;43.286;23.360;2023-05-16T03:25:47;24.83;;;22.30;;
79128;SDS011;68529;43.286;23.360;2023-05-16T03:28:13;23.13;;;20.93;;
79128;SDS011;68529;43.286;23.360;2023-05-16T03:30:39;21.70;;;19.47;;
79128;SDS011;68529;43.286;23.360;2023-05-16T03:33:06;23.93;;;21.53;;
79128;SDS011;68529;43.286;23.360;2023-05-16T03:35:31;24.47;;;22.03;;
79128;SDS011;68529;43.286;23.360;2023-05-16T03:37:57;25.60;;;22.27;;
79128;SDS011;68529;43.286;23.360;2023-05-16T03:40:23;22.20;;;19.97;;
79128;SDS011;68529;43.286;23.360;2023-05-16T03:42:48;23.07;;;20.87;;
79128;SDS011;68529;43.286;23.360;2023-05-16T03:45:14;23.93;;;21.53;;
79128;SDS011;68529;43.286;23.360;2023-05-16T03:47:39;25.80;;;22.27;;
79128;SDS011;68529;43.286;23.360;2023-05-16T03:50:05;22.93;;;20.60;;
79128;SDS011;68529;43.286;23.360;2023-05-16T03:52:32;23.43;;;21.07;;
79128;SDS011;68529;43.286;23.360;2023-05-16T03:54:57;22.80;;;20.40;;
79128;SDS011;68529;43.286;23.360;2023-05-16T03:57:23;23.20;;;20.80;;
79128;SDS011;68529;43.286;23.360;2023-05-16T03:59:48;23.50;;;21.20;;
79128;SDS011;68529;43.286;23.360;2023-05-16T04:02:13;25.17;;;21.73;;
79128;SDS011;68529;43.286;23.360;2023-05-16T04:04:39;21.47;;;19.37;;
79128;SDS011;68529;43.286;23.360;2023-05-16T04:07:04;30.23;;;22.27;;
79128;SDS011;68529;43.286;23.360;2023-05-16T04:09:30;24.67;;;22.13;;
79128;SDS011;68529;43.286;23.360;2023-05-16T04:11:56;24.13;;;21.80;;
79128;SDS011;68529;43.286;23.360;2023-05-16T04:14:22;28.20;;;22.10;;
79128;SDS011;68529;43.286;23.360;2023-05-16T04:16:48;24.00;;;21.60;;
79128;SDS011;68529;43.286;23.360;2023-05-16T04:19:13;26.90;;;23.10;;
79128;SDS011;68529;43.286;23.360;2023-05-16T04:21:39;25.63;;;23.03;;
79128;SDS011;68529;43.286;23.360;2023-05-16T04:24:04;21.57;;;19.27;;
79128;SDS011;68529;43.286;23.360;2023-05-16T04:26:30;28.50;;;20.03;;
79128;SDS011;68529;43.286;23.360;2023-05-16T04:28:56;21.67;;;19.57;;
79128;SDS011;68529;43.286;23.360;2023-05-16T04:31:23;21.03;;;18.97;;
79128;SDS011;68529;43.286;23.360;2023-05-16T04:33:49;21.27;;;19.07;;
79128;SDS011;68529;43.286;23.360;2023-05-16T04:36:15;23.13;;;20.83;;
79128;SDS011;68529;43.286;23.360;2023-05-16T04:38:40;20.63;;;18.63;;
79128;SDS011;68529;43.286;23.360;2023-05-16T04:41:06;20.93;;;18.87;;
79128;SDS011;68529;43.286;23.360;2023-05-16T04:43:32;22.00;;;19.77;;
79128;SDS011;68529;43.286;23.360;2023-05-16T04:45:57;22.07;;;19.80;;
79128;SDS011;68529;43.286;23.360;2023-05-16T04:48:23;21.90;;;19.87;;
79128;SDS011;68529;43.286;23.360;2023-05-16T04:50:48;22.50;;;20.23;;
79128;SDS011;68529;43.286;23.360;2023-05-16T04:53:14;22.87;;;20.47;;
79128;SDS011;68529;43.286;23.360;2023-05-16T04:55:40;22.53;;;20.17;;
79128;SDS011;68529;43.286;23.360;2023-05-16T04:58:05;22.90;;;19.07;;
79128;SDS011;68529;43.286;23.360;2023-05-16T05:00:31;24.53;;;21.97;;
79128;SDS011;68529;43.286;23.360;2023-05-16T05:02:56;23.67;;;21.20;;
79128;SDS011;68529;43.286;23.360;2023-05-16T05:05:21;25.17;;;22.57;;
79128;SDS011;68529;43.286;23.360;2023-05-16T05:07:47;24.40;;;21.80;;
79128;SDS011;68529;43.286;23.360;2023-05-16T05:10:12;25.27;;;22.80;;
79128;SDS011;68529;43.286;23.360;2023-05-16T05:12:38;26.70;;;23.63;;
79128;SDS011;68529;43.286;23.360;2023-05-16T05:15:04;26.43;;;23.73;;
79128;SDS011;68529;43.286;23.360;2023-05-16T05:17:30;27.10;;;24.43;;
79128;SDS011;68529;43.286;23.360;2023-05-16T05:19:56;27.07;;;24.20;;
79128;SDS011;68529;43.286;23.360;2023-05-16T05:22:21;27.53;;;24.80;;
79128;SDS011;68529;43.286;23.360;2023-05-16T05:24:47;26.17;;;23.47;;
79128;SDS011;68529;43.286;23.360;2023-05-16T05:27:12;25.03;;;22.53;;
79128;SDS011;68529;43.286;23.360;2023-05-16T05:29:37;25.07;;;22.57;;
79128;SDS011;68529;43.286;23.360;2023-05-16T05:32:04;26.60;;;23.73;;
79128;SDS011;68529;43.286;23.360;2023-05-16T05:34:30;26.00;;;23.50;;
79128;SDS011;68529;43.286;23.360;2023-05-16T05:36:55;24.77;;;22.20;;
79128;SDS011;68529;43.286;23.360;2023-05-16T05:39:21;25.57;;;22.80;;
79128;SDS011;68529;43.286;23.360;2023-05-16T05:41:47;26.20;;;21.43;;
79128;SDS011;68529;43.286;23.360;2023-05-16T05:44:12;25.43;;;22.80;;
79128;SDS011;68529;43.286;23.360;2023-05-16T05:46:37;25.70;;;22.70;;
79128;SDS011;68529;43.286;23.360;2023-05-16T05:49:03;26.43;;;23.63;;
79128;SDS011;68529;43.286;23.360;2023-05-16T05:51:29;26.20;;;23.57;;
79128;SDS011;68529;43.286;23.360;2023-05-16T05:53:55;27.37;;;24.63;;
79128;SDS011;68529;43.286;23.360;2023-05-16T05:56:21;29.63;;;26.27;;
79128;SDS011;68529;43.286;23.360;2023-05-16T05:58:48;25.63;;;21.23;;
79128;SDS011;68529;43.286;23.360;2023-05-16T06:01:14;25.87;;;22.90;;
79128;SDS011;68529;43.286;23.360;2023-05-16T06:03:40;23.40;;;21.10;;
79128;SDS011;68529;43.286;23.360;2023-05-16T06:06:06;24.50;;;22.10;;
79128;SDS011;68529;43.286;23.360;2023-05-16T06:08:32;24.17;;;21.83;;
79128;SDS011;68529;43.286;23.360;2023-05-16T06:10:58;26.13;;;23.53;;
79128;SDS011;68529;43.286;23.360;2023-05-16T06:13:24;28.17;;;23.87;;
79128;SDS011;68529;43.286;23.360;2023-05-16T06:15:50;26.20;;;23.27;;
79128;SDS011;68529;43.286;23.360;2023-05-16T06:18:15;26.00;;;23.20;;
79128;SDS011;68529;43.286;23.360;2023-05-16T06:20:41;27.00;;;24.23;;
79128;SDS011;68529;43.286;23.360;2023-05-16T06:23:06;25.40;;;22.70;;
79128;SDS011;68529;43.286;23.360;2023-05-16T06:25:32;25.23;;;22.53;;
79128;SDS011;68529;43.286;23.360;2023-05-16T06:27:57;27.17;;;24.33;;
79128;SDS011;68529;43.286;23.360;2023-05-16T06:30:23;29.00;;;25.90;;
79128;SDS011;68529;43.286;23.360;2023-05-16T06:32:48;30.47;;;27.23;;
79128;SDS011;68529;43.286;23.360;2023-05-16T06:35:13;28.93;;;26.13;;
79128;SDS011;68529;43.286;23.360;2023-05-16T06:37:39;29.43;;;26.00;;
79128;SDS011;68529;43.286;23.360;2023-05-16T06:40:05;27.60;;;24.77;;
79128;SDS011;68529;43.286;23.360;2023-05-16T06:42:31;28.03;;;25.07;;
79128;SDS011;68529;43.286;23.360;2023-05-16T06:44:56;28.33;;;23.57;;
79128;SDS011;68529;43.286;23.360;2023-05-16T06:47:22;26.27;;;23.53;;
79128;SDS011;68529;43.286;23.360;2023-05-16T06:49:48;27.23;;;23.97;;
79128;SDS011;68529;43.286;23.360;2023-05-16T06:52:13;27.80;;;24.93;;
79128;SDS011;68529;43.286;23.360;2023-05-16T06:54:39;27.33;;;24.40;;
79128;SDS011;68529;43.286;23.360;2023-05-16T06:57:04;26.93;;;24.30;;
79128;SDS011;68529;43.286;23.360;2023-05-16T06:59:30;22.97;;;20.67;;
79128;SDS011;68529;43.286;23.360;2023-05-16T07:01:56;22.40;;;18.97;;
79128;SDS011;68529;43.286;23.360;2023-05-16T07:11:04;23.03;;;20.73;;
79128;SDS011;68529;43.286;23.360;2023-05-16T07:13:30;23.40;;;20.90;;
79128;SDS011;68529;43.286;23.360;2023-05-16T07:15:55;24.80;;;22.30;;
79128;SDS011;68529;43.286;23.360;2023-05-16T07:18:21;26.73;;;22.17;;
79128;SDS011;68529;43.286;23.360;2023-05-16T07:20:46;27.07;;;23.10;;
79128;SDS011;68529;43.286;23.360;2023-05-16T07:23:12;29.40;;;21.00;;
79128;SDS011;68529;43.286;23.360;2023-05-16T07:25:37;24.57;;;21.03;;
79128;SDS011;68529;43.286;23.360;2023-05-16T07:28:03;22.67;;;20.33;;
79128;SDS011;68529;43.286;23.360;2023-05-16T07:30:28;21.90;;;18.23;;
79128;SDS011;68529;43.286;23.360;2023-05-16T07:32:54;21.40;;;18.77;;
79128;SDS011;68529;43.286;23.360;2023-05-16T07:35:20;24.47;;;20.23;;
79128;SDS011;68529;43.286;23.360;2023-05-16T07:37:45;25.67;;;20.23;;
79128;SDS011;68529;43.286;23.360;2023-05-16T07:40:11;17.70;;;15.97;;
79128;SDS011;68529;43.286;23.360;2023-05-16T07:42:37;21.63;;;19.50;;
79128;SDS011;68529;43.286;23.360;2023-05-16T07:45:02;23.17;;;20.87;;
79128;SDS011;68529;43.286;23.360;2023-05-16T07:47:28;21.20;;;19.23;;
79128;SDS011;68529;43.286;23.360;2023-05-16T07:49:54;25.53;;;20.80;;
79128;SDS011;68529;43.286;23.360;2023-05-16T07:52:19;23.47;;;20.60;;
79128;SDS011;68529;43.286;23.360;2023-05-16T07:54:45;22.37;;;20.00;;
79128;SDS011;68529;43.286;23.360;2023-05-16T08:07:17;18.87;;;16.27;;
79128;SDS011;68529;43.286;23.360;2023-05-16T08:09:42;20.57;;;18.53;;
79128;SDS011;68529;43.286;23.360;2023-05-16T08:12:08;21.40;;;19.23;;
79128;SDS011;68529;43.286;23.360;2023-05-16T08:14:33;19.70;;;17.63;;
79128;SDS011;68529;43.286;23.360;2023-05-16T08:16:59;23.80;;;17.93;;
79128;SDS011;68529;43.286;23.360;2023-05-16T08:19:24;23.07;;;18.17;;
79128;SDS011;68529;43.286;23.360;2023-05-16T08:21:50;20.40;;;18.30;;
79128;SDS011;68529;43.286;23.360;2023-05-16T08:24:16;22.50;;;20.20;;
79128;SDS011;68529;43.286;23.360;2023-05-16T08:26:42;21.47;;;19.27;;
79128;SDS011;68529;43.286;23.360;2023-05-16T08:29:07;20.80;;;18.53;;
79128;SDS011;68529;43.286;23.360;2023-05-16T08:31:32;23.90;;;21.03;;
79128;SDS011;68529;43.286;23.360;2023-05-16T08:33:58;22.60;;;19.93;;
79128;SDS011;68529;43.286;23.360;2023-05-16T08:36:25;21.40;;;19.40;;
79128;SDS011;68529;43.286;23.360;2023-05-16T08:38:51;22.07;;;19.83;;
79128;SDS011;68529;43.286;23.360;2023-05-16T08:41:16;21.77;;;19.67;;
79128;SDS011;68529;43.286;23.360;2023-05-16T08:43:42;23.27;;;20.77;;
79128;SDS011;68529;43.286;23.360;2023-05-16T08:46:07;23.37;;;20.87;;
79128;SDS011;68529;43.286;23.360;2023-05-16T08:48:33;22.63;;;20.43;;
79128;SDS011;68529;43.286;23.360;2023-05-16T08:51:01;22.33;;;20.03;;
79128;SDS011;68529;43.286;23.360;2023-05-16T08:53:30;20.83;;;18.73;;
79128;SDS011;68529;43.286;23.360;2023-05-16T08:56:01;21.80;;;19.53;;
79128;SDS011;68529;43.286;23.360;2023-05-16T08:58:28;21.83;;;18.83;;
79128;SDS011;68529;43.286;23.360;2023-05-16T09:00:54;24.00;;;19.33;;
79128;SDS011;68529;43.286;23.360;2023-05-16T09:03:20;23.83;;;21.13;;
79128;SDS011;68529;43.286;23.360;2023-05-16T09:05:48;24.93;;;22.33;;
79128;SDS011;68529;43.286;23.360;2023-05-16T09:08:14;23.37;;;20.97;;
79128;SDS011;68529;43.286;23.360;2023-05-16T09:10:40;24.67;;;22.10;;
79128;SDS011;68529;43.286;23.360;2023-05-16T09:13:05;25.63;;;22.23;;
79128;SDS011;68529;43.286;23.360;2023-05-16T09:15:31;21.87;;;19.53;;
79128;SDS011;68529;43.286;23.360;2023-05-16T09:18:01;21.17;;;18.90;;
79128;SDS011;68529;43.286;23.360;2023-05-16T09:20:26;20.30;;;18.10;;
79128;SDS011;68529;43.286;23.360;2023-05-16T09:22:56;19.80;;;17.93;;
79128;SDS011;68529;43.286;23.360;2023-05-16T09:25:23;22.87;;;20.57;;
79128;SDS011;68529;43.286;23.360;2023-05-16T09:27:54;22.07;;;19.87;;
79128;SDS011;68529;43.286;23.360;2023-05-16T09:30:21;21.33;;;19.13;;
79128;SDS011;68529;43.286;23.360;2023-05-16T09:32:50;18.90;;;16.83;;
79128;SDS011;68529;43.286;23.360;2023-05-16T09:35:17;20.50;;;18.40;;
79128;SDS011;68529;43.286;23.360;2023-05-16T09:37:44;19.93;;;17.90;;
79128;SDS011;68529;43.286;23.360;2023-05-16T09:40:11;20.60;;;18.67;;
79128;SDS011;68529;43.286;23.360;2023-05-16T09:42:36;20.17;;;18.17;;
79128;SDS011;68529;43.286;23.360;2023-05-16T09:45:02;19.40;;;17.70;;
79128;SDS011;68529;43.286;23.360;2023-05-16T09:47:28;20.10;;;17.50;;
79128;SDS011;68529;43.286;23.360;2023-05-16T09:49:54;19.40;;;17.43;;
79128;SDS011;68529;43.286;23.360;2023-05-16T09:52:20;18.37;;;16.50;;
79128;SDS011;68529;43.286;23.360;2023-05-16T09:54:46;19.13;;;17.43;;
79128;SDS011;68529;43.286;23.360;2023-05-16T09:57:21;21.20;;;18.53;;
79128;SDS011;68529;43.286;23.360;2023-05-16T09:59:47;17.60;;;16.00;;
79128;SDS011;68529;43.286;23.360;2023-05-16T10:02:14;18.73;;;16.93;;
79128;SDS011;68529;43.286;23.360;2023-05-16T10:04:40;18.43;;;16.60;;
79128;SDS011;68529;43.286;23.360;2023-05-16T10:07:06;17.77;;;16.03;;
79128;SDS011;68529;43.286;23.360;2023-05-16T10:09:34;18.20;;;16.50;;
79128;SDS011;68529;43.286;23.360;2023-05-16T10:12:04;19.07;;;16.80;;
79128;SDS011;68529;43.286;23.360;2023-05-16T10:14:33;21.57;;;19.20;;
79128;SDS011;68529;43.286;23.360;2023-05-16T10:17:02;24.13;;;21.67;;
79128;SDS011;68529;43.286;23.360;2023-05-16T10:19:30;21.70;;;19.60;;
79128;SDS011;68529;43.286;23.360;2023-05-16T10:22:01;22.37;;;19.97;;
79128;SDS011;68529;43.286;23.360;2023-05-16T10:27:10;23.53;;;21.03;;
79128;SDS011;68529;43.286;23.360;2023-05-16T10:29:37;22.50;;;20.30;;
79128;SDS011;68529;43.286;23.360;2023-05-16T10:32:03;24.93;;;22.30;;
79128;SDS011;68529;43.286;23.360;2023-05-16T10:34:31;29.93;;;26.80;;
79128;SDS011;68529;43.286;23.360;2023-05-16T10:36:56;22.50;;;20.30;;
79128;SDS011;68529;43.286;23.360;2023-05-16T10:39:23;23.73;;;21.43;;
79128;SDS011;68529;43.286;23.360;2023-05-16T10:41:48;23.40;;;20.90;;
79128;SDS011;68529;43.286;23.360;2023-05-16T10:44:14;28.87;;;25.83;;
79128;SDS011;68529;43.286;23.360;2023-05-16T10:46:41;23.73;;;21.40;;
79128;SDS011;68529;43.286;23.360;2023-05-16T10:49:19;22.90;;;20.50;;
79128;SDS011;68529;43.286;23.360;2023-05-16T10:51:48;23.27;;;20.87;;
79128;SDS011;68529;43.286;23.360;2023-05-16T10:54:40;23.87;;;21.37;;
79128;SDS011;68529;43.286;23.360;2023-05-16T10:57:08;21.67;;;19.50;;
79128;SDS011;68529;43.286;23.360;2023-05-16T10:59:44;23.70;;;20.63;;
79128;SDS011;68529;43.286;23.360;2023-05-16T11:04:48;22.07;;;19.97;;
79128;SDS011;68529;43.286;23.360;2023-05-16T11:07:15;22.63;;;20.33;;
79128;SDS011;68529;43.286;23.360;2023-05-16T11:09:45;22.33;;;20.13;;
79128;SDS011;68529;43.286;23.360;2023-05-16T11:12:19;22.83;;;20.73;;
79128;SDS011;68529;43.286;23.360;2023-05-16T11:14:45;18.80;;;17.10;;
79128;SDS011;68529;43.286;23.360;2023-05-16T11:17:22;20.63;;;18.50;;
79128;SDS011;68529;43.286;23.360;2023-05-16T11:25:07;19.17;;;17.03;;
79128;SDS011;68529;43.286;23.360;2023-05-16T11:27:36;19.17;;;17.23;;
79128;SDS011;68529;43.286;23.360;2023-05-16T11:32:30;20.33;;;18.33;;
79128;SDS011;68529;43.286;23.360;2023-05-16T11:34:59;20.63;;;18.57;;
79128;SDS011;68529;43.286;23.360;2023-05-16T11:37:26;19.33;;;17.70;;
79128;SDS011;68529;43.286;23.360;2023-05-16T11:39:52;18.50;;;16.70;;
79128;SDS011;68529;43.286;23.360;2023-05-16T11:42:17;20.20;;;18.30;;
79128;SDS011;68529;43.286;23.360;2023-05-16T11:44:43;20.77;;;18.37;;
79128;SDS011;68529;43.286;23.360;2023-05-16T11:47:09;21.40;;;19.17;;
79128;SDS011;68529;43.286;23.360;2023-05-16T11:49:35;21.13;;;18.97;;
79128;SDS011;68529;43.286;23.360;2023-05-16T11:52:01;22.17;;;19.97;;
79128;SDS011;68529;43.286;23.360;2023-05-16T11:54:27;20.00;;;17.90;;
79128;SDS011;68529;43.286;23.360;2023-05-16T11:56:53;19.83;;;17.73;;
79128;SDS011;68529;43.286;23.360;2023-05-16T11:59:18;19.73;;;17.73;;
79128;SDS011;68529;43.286;23.360;2023-05-16T12:01:44;21.13;;;18.97;;
79128;SDS011;68529;43.286;23.360;2023-05-16T12:04:13;20.87;;;18.87;;
79128;SDS011;68529;43.286;23.360;2023-05-16T12:06:39;20.60;;;18.60;;
79128;SDS011;68529;43.286;23.360;2023-05-16T12:09:10;19.97;;;17.90;;
79128;SDS011;68529;43.286;23.360;2023-05-16T12:11:41;20.47;;;18.40;;
79128;SDS011;68529;43.286;23.360;2023-05-16T12:14:10;20.33;;;18.13;;
79128;SDS011;68529;43.286;23.360;2023-05-16T12:16:38;18.13;;;16.47;;
79128;SDS011;68529;43.286;23.360;2023-05-16T12:19:06;17.93;;;16.07;;
79128;SDS011;68529;43.286;23.360;2023-05-16T12:21:33;18.40;;;16.50;;
79128;SDS011;68529;43.286;23.360;2023-05-16T12:23:59;18.47;;;16.77;;
79128;SDS011;68529;43.286;23.360;2023-05-16T12:26:26;18.13;;;16.43;;
79128;SDS011;68529;43.286;23.360;2023-05-16T12:28:59;19.33;;;17.00;;
79128;SDS011;68529;43.286;23.360;2023-05-16T12:31:27;20.70;;;17.20;;
79128;SDS011;68529;43.286;23.360;2023-05-16T12:33:55;17.63;;;14.70;;
79128;SDS011;68529;43.286;23.360;2023-05-16T12:36:21;16.57;;;15.07;;
79128;SDS011;68529;43.286;23.360;2023-05-16T12:38:47;16.87;;;15.17;;
79128;SDS011;68529;43.286;23.360;2023-05-16T12:41:20;18.00;;;16.13;;
79128;SDS011;68529;43.286;23.360;2023-05-16T12:43:47;17.27;;;15.57;;
79128;SDS011;68529;43.286;23.360;2023-05-16T12:46:13;17.27;;;15.67;;
79128;SDS011;68529;43.286;23.360;2023-05-16T12:48:39;17.23;;;15.53;;
79128;SDS011;68529;43.286;23.360;2023-05-16T12:56:09;17.20;;;15.70;;
79128;SDS011;68529;43.286;23.360;2023-05-16T12:58:36;16.90;;;15.10;;
79128;SDS011;68529;43.286;23.360;2023-05-16T13:01:01;18.30;;;16.47;;
79128;SDS011;68529;43.286;23.360;2023-05-16T13:03:27;18.40;;;16.67;;
79128;SDS011;68529;43.286;23.360;2023-05-16T13:05:54;19.53;;;15.67;;
79128;SDS011;68529;43.286;23.360;2023-05-16T13:08:20;18.07;;;16.20;;
79128;SDS011;68529;43.286;23.360;2023-05-16T13:10:45;17.80;;;16.00;;
79128;SDS011;68529;43.286;23.360;2023-05-16T13:13:10;17.03;;;15.33;;
79128;SDS011;68529;43.286;23.360;2023-05-16T13:15:36;16.43;;;14.93;;
79128;SDS011;68529;43.286;23.360;2023-05-16T13:18:02;17.67;;;15.87;;
79128;SDS011;68529;43.286;23.360;2023-05-16T13:20:27;21.63;;;15.90;;
79128;SDS011;68529;43.286;23.360;2023-05-16T13:22:53;18.90;;;17.00;;
79128;SDS011;68529;43.286;23.360;2023-05-16T13:25:19;18.17;;;16.27;;
79128;SDS011;68529;43.286;23.360;2023-05-16T13:27:45;19.40;;;17.53;;
79128;SDS011;68529;43.286;23.360;2023-05-16T13:30:13;18.93;;;17.03;;
79128;SDS011;68529;43.286;23.360;2023-05-16T13:32:39;20.03;;;16.23;;
79128;SDS011;68529;43.286;23.360;2023-05-16T13:35:04;18.77;;;16.33;;
79128;SDS011;68529;43.286;23.360;2023-05-16T13:37:30;18.37;;;16.53;;
79128;SDS011;68529;43.286;23.360;2023-05-16T13:39:56;19.90;;;16.43;;
79128;SDS011;68529;43.286;23.360;2023-05-16T13:42:21;19.67;;;16.13;;
79128;SDS011;68529;43.286;23.360;2023-05-16T13:44:47;18.37;;;15.87;;
79128;SDS011;68529;43.286;23.360;2023-05-16T13:47:12;18.50;;;16.57;;
79128;SDS011;68529;43.286;23.360;2023-05-16T13:49:37;18.57;;;16.60;;
79128;SDS011;68529;43.286;23.360;2023-05-16T13:52:03;18.50;;;16.50;;
79128;SDS011;68529;43.286;23.360;2023-05-16T13:54:30;17.53;;;15.87;;
79128;SDS011;68529;43.286;23.360;2023-05-16T13:56:55;16.70;;;14.97;;
79128;SDS011;68529;43.286;23.360;2023-05-16T13:59:21;22.87;;;20.53;;
79128;SDS011;68529;43.286;23.360;2023-05-16T14:01:47;18.17;;;16.47;;
79128;SDS011;68529;43.286;23.360;2023-05-16T14:04:12;18.77;;;15.77;;
79128;SDS011;68529;43.286;23.360;2023-05-16T14:06:38;19.07;;;17.23;;
79128;SDS011;68529;43.286;23.360;2023-05-16T14:09:03;22.03;;;16.10;;
79128;SDS011;68529;43.286;23.360;2023-05-16T14:11:29;17.77;;;15.97;;
79128;SDS011;68529;43.286;23.360;2023-05-16T14:13:54;20.63;;;18.50;;
79128;SDS011;68529;43.286;23.360;2023-05-16T14:16:20;19.47;;;17.43;;
79128;SDS011;68529;43.286;23.360;2023-05-16T14:18:46;19.07;;;17.27;;
79128;SDS011;68529;43.286;23.360;2023-05-16T14:21:11;20.60;;;17.77;;
79128;SDS011;68529;43.286;23.360;2023-05-16T14:23:37;19.60;;;17.70;;
79128;SDS011;68529;43.286;23.360;2023-05-16T14:26:03;20.43;;;18.20;;
79128;SDS011;68529;43.286;23.360;2023-05-16T14:28:29;19.93;;;16.33;;
79128;SDS011;68529;43.286;23.360;2023-05-16T14:30:56;22.10;;;19.67;;
79128;SDS011;68529;43.286;23.360;2023-05-16T14:33:22;21.97;;;18.67;;
79128;SDS011;68529;43.286;23.360;2023-05-16T14:35:47;22.13;;;19.93;;
79128;SDS011;68529;43.286;23.360;2023-05-16T14:38:14;19.97;;;17.93;;
79128;SDS011;68529;43.286;23.360;2023-05-16T14:40:40;18.90;;;16.70;;
79128;SDS011;68529;43.286;23.360;2023-05-16T14:43:05;19.03;;;17.17;;
79128;SDS011;68529;43.286;23.360;2023-05-16T14:45:31;18.90;;;17.20;;
79128;SDS011;68529;43.286;23.360;2023-05-16T14:47:57;19.27;;;17.47;;